Monte Alegre — DFWV2 — position and weather

sailwx.info

Track history (hours):
 
Tides and Currents Weather Stations Pressure Air Temp Water Temp Dewpoint Dewpoint Depression Visibility Wind Speed Wind Dir Waves Ship Positions

Monte Alegre

Last reported at 2018-Jan-19 08:28 UTC. Time now 2018-Jan-19 11:41 UTC.
Position N 49°48' W 003°28'.

Length 272 m; draft 11.4 m.

Type: Cargo ship. MMSI: 218744000.

Date/timePositionNaut miles runAvg speedWind from/ knotsBaromVisibWave heightAir tempDewpointWater temp
2018-Jan-19 08:28N 49°48' W 003°28'612.5
2018-Jan-19 08:00N 49°50' W 003°20'612.3
2018-Jan-19 07:30N 49°53' W 003°11'612.4
2018-Jan-19 07:00N 49°56' W 003°03'612.3
2018-Jan-19 06:30N 49°58' W 002°54'612.8
2018-Jan-19 06:00N 49°59' W 002°44'713.5
2018-Jan-19 05:30N 50°01' W 002°34'9415.4
2018-Jan-18 23:24N 50°26' W 000°13'512.5
2018-Jan-18 23:00N 50°27' W 000°05'612.0
2018-Jan-18 22:30N 50°29' E 000°04'611.3
2018-Jan-18 22:00N 50°31' E 000°12'611.6
2018-Jan-18 21:30N 50°35' E 000°20'611.7
2018-Jan-18 21:00N 50°35' E 000°29'612.4
2018-Jan-18 20:30N 50°38' E 000°38'713.5
2018-Jan-18 20:00N 50°41' E 000°47'714.5
2018-Jan-18 19:30N 50°45' E 000°56'815.2
2018-Jan-18 19:00N 50°49' E 001°06'815.6
2018-Jan-18 18:29N 50°54' E 001°17'816.0
2018-Jan-18 17:59N 51°00' E 001°26'714.9
2018-Jan-18 17:31N 51°05' E 001°33'714.4
2018-Jan-18 17:01N 51°10' E 001°41'713.6
2018-Jan-18 16:30N 51°16' E 001°48'713.3
2018-Jan-18 16:00N 51°22' E 001°53'612.7
2018-Jan-18 15:30N 51°27' E 001°58'612.5
2018-Jan-18 15:00N 51°32' E 002°05'612.3
2018-Jan-18 14:30N 51°36' E 002°12'611.2
2018-Jan-18 14:00N 51°41' E 002°17'510.7
2018-Jan-18 13:30N 51°45' E 002°23'9710.7
2018-Jan-18 04:24N 53°00' E 004°04'610.3
2018-Jan-18 03:51N 53°04' E 004°10'411.0
2018-Jan-18 03:29N 53°06' E 004°16'611.5
2018-Jan-18 03:00N 53°10' E 004°23'612.4
2018-Jan-18 02:29N 53°16' E 004°27'712.8
2018-Jan-18 01:54N 53°23' E 004°32'512.8
2018-Jan-18 01:30N 53°27' E 004°36'612.7
2018-Jan-18 01:00N 53°31' E 004°44'1312.8
2018-Jan-18 00:00N 53°35' E 005°05'112.7
2018-Jan-17 23:57N 53°35' E 005°06'  
2018-Jan-15 16:00N 53°12' E 004°30'115 3.3 190 / 28988.9 2.2 6.0 5.6 8.0
2018-Jan-14 05:00N 51°18' E 004°12'115 3.0 090 / 71019.410.8 4.1 0.1 7.0
2018-Jan-12 15:00N 51°58' E 001°18'0 0.7
2018-Jan-12 14:30N 51°57' E 001°18'3 5.6
2018-Jan-12 14:00N 51°56' E 001°22'714.3
2018-Jan-12 13:31N 51°56' E 001°33'612.1
2018-Jan-12 13:00N 51°51' E 001°40'2 4.3
2018-Jan-12 12:31N 51°51' E 001°43'0 0.7
2018-Jan-12 12:00N 51°51' E 001°43'1 1.0
2018-Jan-12 11:31N 51°51' E 001°44'3 5.9
2018-Jan-12 11:00N 51°50' E 001°48'510.2
2018-Jan-12 10:30N 51°45' E 001°49'611.1
2018-Jan-12 10:01N 51°40' E 001°49'713.3
2018-Jan-12 09:30N 51°33' E 001°50'917.6
2018-Jan-12 09:01N 51°26' E 001°59'917.4
2018-Jan-12 08:31N 51°19' E 002°06'611.6
2018-Jan-12 08:00N 51°13' E 002°02'511.0
2018-Jan-12 07:30N 51°11' E 001°54'510.8
2018-Jan-12 07:00N 51°08' E 001°47'510.6
2018-Jan-12 06:30N 51°04' E 001°41'510.0
2018-Jan-12 06:00N 51°01' E 001°35'3222.8
2018-Jan-12 06:00N 51°00' E 001°30'3 5.9 1025.910.8 7.1 4.9 8.0
2018-Jan-12 05:30N 50°57' E 001°30'4 8.9
2018-Jan-12 05:00N 50°53' E 001°26'4 8.6
2018-Jan-12 04:30N 50°49' E 001°24'4 8.5
2018-Jan-12 04:00N 50°45' E 001°22'4 8.4
2018-Jan-12 03:30N 50°41' E 001°19'4 8.8
2018-Jan-12 03:00N 50°39' E 001°13'4 8.7
2018-Jan-12 02:29N 50°36' E 001°08'5 8.9
2018-Jan-12 01:55N 50°33' E 001°02'4 8.8
2018-Jan-12 01:29N 50°31' E 000°57'4 9.0
2018-Jan-12 01:00N 50°29' E 000°50'5 9.2
2018-Jan-12 00:30N 50°28' E 000°43'5 9.1
2018-Jan-11 23:58N 50°26' E 000°36'4 9.1
2018-Jan-11 23:29N 50°25' E 000°30'4 9.0
2018-Jan-11 23:00N 50°24' E 000°23'4 8.8
2018-Jan-11 22:30N 50°23' E 000°16'4 8.8
2018-Jan-11 22:00N 50°22' E 000°10'4 8.7
2018-Jan-11 21:30N 50°20' E 000°03'4 8.8
2018-Jan-11 21:00N 50°19' W 000°03'4 9.0
2018-Jan-11 20:30N 50°18' W 000°10'5 9.0
2018-Jan-11 20:00N 50°16' W 000°17'5 9.1
2018-Jan-11 19:30N 50°15' W 000°24'5 9.5
2018-Jan-11 18:59N 50°14' W 000°31'1313.4
2018-Jan-11 18:00N 50°06' W 000°48'719.2 010 / 81022.310.8 13.1 8.8 9.0
2018-Jan-11 17:37N 50°10' W 000°58'513.4
2018-Jan-11 17:15N 50°08' W 001°05'913.7
2018-Jan-11 16:35N 50°06' W 001°19'114.0
2018-Jan-11 16:29N 50°06' W 001°21'714.0
2018-Jan-11 16:00N 50°04' W 001°31'714.3
2018-Jan-11 15:31N 50°02' W 001°42'714.1
2018-Jan-11 15:01N 50°00' W 001°52'713.8
2018-Jan-11 14:30N 49°59' W 002°03'713.2
2018-Jan-11 14:00N 49°57' W 002°13'912.5
2018-Jan-11 13:17N 49°54' W 002°26'312.2
2018-Jan-11 13:00N 49°53' W 002°31'611.9
2018-Jan-11 12:30N 49°51' W 002°40'611.5
2018-Jan-11 12:00N 49°49' W 002°48'611.2
2018-Jan-11 11:27N 49°48' W 002°58'511.0
2018-Jan-11 11:00N 49°45' W 003°04'510.9
2018-Jan-11 10:30N 49°43' W 003°11'510.8
2018-Jan-11 10:01N 49°40' W 003°18'610.7
2018-Jan-11 09:27N 49°37' W 003°26'710.7
2018-Jan-11 08:47N 49°33' W 003°36'2810.0
2018-Jan-11 06:00N 49°18' W 004°12'10 9.9 280 / 231010.610.8 10.7 6.310.0
2018-Jan-11 05:00N 49°12' W 004°24'2611.9 090 / 241008.710.8 10.5 5.310.0
2018-Jan-11 02:47N 49°01' W 005°00'311.1
2018-Jan-11 02:30N 48°59' W 005°04'611.3
2018-Jan-11 02:00N 48°56' W 005°12'611.8
2018-Jan-11 01:30N 48°53' W 005°19'612.2
2018-Jan-11 01:00N 48°50' W 005°27'60517.1
2018-Jan-09 13:37N 39°15' W 009°51'321.2
2018-Jan-09 13:29N 39°13' W 009°51'1121.9
2018-Jan-09 13:00N 39°02' W 009°51'1122.3
2018-Jan-09 12:30N 38°51' W 009°51'1122.2
2018-Jan-09 12:00N 38°40' W 009°51'1122.3
2018-Jan-09 11:31N 38°29' W 009°48'1122.4
2018-Jan-09 11:00N 38°18' W 009°44'1122.7
2018-Jan-09 10:30N 38°07' W 009°41'1122.6
2018-Jan-09 10:00N 37°56' W 009°38'1422.6
2018-Jan-09 09:23N 37°42' W 009°34'1322.0
2018-Jan-09 08:47N 37°30' W 009°31'  
Track history (hours):
 
Tides and Currents Weather Stations Pressure Air Temp Water Temp Dewpoint Dewpoint Depression Visibility Wind Speed Wind Dir Waves Ship Positions

Monte Alegre

Last reported at 2018-Jan-19 08:28 UTC. Time now 2018-Jan-19 11:41 UTC.
Position N 49°48' W 003°28'.

Length 272 m; draft 11.4 m.

Type: Cargo ship. MMSI: 218744000.

Date/timePositionNaut miles runAvg speedWind from/ knotsBaromVisibWave heightAir tempDewpointWater temp
2018-Jan-19 08:28N 49°48' W 003°28'612.5
2018-Jan-19 08:00N 49°50' W 003°20'612.3
2018-Jan-19 07:30N 49°53' W 003°11'612.4
2018-Jan-19 07:00N 49°56' W 003°03'612.3
2018-Jan-19 06:30N 49°58' W 002°54'612.8
2018-Jan-19 06:00N 49°59' W 002°44'713.5
2018-Jan-19 05:30N 50°01' W 002°34'9415.4
2018-Jan-18 23:24N 50°26' W 000°13'512.5
2018-Jan-18 23:00N 50°27' W 000°05'612.0
2018-Jan-18 22:30N 50°29' E 000°04'611.3
2018-Jan-18 22:00N 50°31' E 000°12'611.6
2018-Jan-18 21:30N 50°35' E 000°20'611.7
2018-Jan-18 21:00N 50°35' E 000°29'612.4
2018-Jan-18 20:30N 50°38' E 000°38'713.5
2018-Jan-18 20:00N 50°41' E 000°47'714.5
2018-Jan-18 19:30N 50°45' E 000°56'815.2
2018-Jan-18 19:00N 50°49' E 001°06'815.6
2018-Jan-18 18:29N 50°54' E 001°17'816.0
2018-Jan-18 17:59N 51°00' E 001°26'714.9
2018-Jan-18 17:31N 51°05' E 001°33'714.4
2018-Jan-18 17:01N 51°10' E 001°41'713.6
2018-Jan-18 16:30N 51°16' E 001°48'713.3
2018-Jan-18 16:00N 51°22' E 001°53'612.7
2018-Jan-18 15:30N 51°27' E 001°58'612.5
2018-Jan-18 15:00N 51°32' E 002°05'612.3
2018-Jan-18 14:30N 51°36' E 002°12'611.2
2018-Jan-18 14:00N 51°41' E 002°17'510.7
2018-Jan-18 13:30N 51°45' E 002°23'9710.7
2018-Jan-18 04:24N 53°00' E 004°04'610.3
2018-Jan-18 03:51N 53°04' E 004°10'411.0
2018-Jan-18 03:29N 53°06' E 004°16'611.5
2018-Jan-18 03:00N 53°10' E 004°23'612.4
2018-Jan-18 02:29N 53°16' E 004°27'712.8
2018-Jan-18 01:54N 53°23' E 004°32'512.8
2018-Jan-18 01:30N 53°27' E 004°36'612.7
2018-Jan-18 01:00N 53°31' E 004°44'1312.8
2018-Jan-18 00:00N 53°35' E 005°05'112.7
2018-Jan-17 23:57N 53°35' E 005°06'  
2018-Jan-15 16:00N 53°12' E 004°30'115 3.3 190 / 28988.9 2.2 6.0 5.6 8.0
2018-Jan-14 05:00N 51°18' E 004°12'115 3.0 090 / 71019.410.8 4.1 0.1 7.0
2018-Jan-12 15:00N 51°58' E 001°18'0 0.7
2018-Jan-12 14:30N 51°57' E 001°18'3 5.6
2018-Jan-12 14:00N 51°56' E 001°22'714.3
2018-Jan-12 13:31N 51°56' E 001°33'612.1
2018-Jan-12 13:00N 51°51' E 001°40'2 4.3
2018-Jan-12 12:31N 51°51' E 001°43'0 0.7
2018-Jan-12 12:00N 51°51' E 001°43'1 1.0
2018-Jan-12 11:31N 51°51' E 001°44'3 5.9
2018-Jan-12 11:00N 51°50' E 001°48'510.2
2018-Jan-12 10:30N 51°45' E 001°49'611.1
2018-Jan-12 10:01N 51°40' E 001°49'713.3
2018-Jan-12 09:30N 51°33' E 001°50'917.6
2018-Jan-12 09:01N 51°26' E 001°59'917.4
2018-Jan-12 08:31N 51°19' E 002°06'611.6
2018-Jan-12 08:00N 51°13' E 002°02'511.0
2018-Jan-12 07:30N 51°11' E 001°54'510.8
2018-Jan-12 07:00N 51°08' E 001°47'510.6
2018-Jan-12 06:30N 51°04' E 001°41'510.0
2018-Jan-12 06:00N 51°01' E 001°35'3222.8
2018-Jan-12 06:00N 51°00' E 001°30'3 5.9 1025.910.8 7.1 4.9 8.0
2018-Jan-12 05:30N 50°57' E 001°30'4 8.9
2018-Jan-12 05:00N 50°53' E 001°26'4 8.6
2018-Jan-12 04:30N 50°49' E 001°24'4 8.5
2018-Jan-12 04:00N 50°45' E 001°22'4 8.4
2018-Jan-12 03:30N 50°41' E 001°19'4 8.8
2018-Jan-12 03:00N 50°39' E 001°13'4 8.7
2018-Jan-12 02:29N 50°36' E 001°08'5 8.9
2018-Jan-12 01:55N 50°33' E 001°02'4 8.8
2018-Jan-12 01:29N 50°31' E 000°57'4 9.0
2018-Jan-12 01:00N 50°29' E 000°50'5 9.2
2018-Jan-12 00:30N 50°28' E 000°43'5 9.1
2018-Jan-11 23:58N 50°26' E 000°36'4 9.1
2018-Jan-11 23:29N 50°25' E 000°30'4 9.0
2018-Jan-11 23:00N 50°24' E 000°23'4 8.8
2018-Jan-11 22:30N 50°23' E 000°16'4 8.8
2018-Jan-11 22:00N 50°22' E 000°10'4 8.7
2018-Jan-11 21:30N 50°20' E 000°03'4 8.8
2018-Jan-11 21:00N 50°19' W 000°03'4 9.0
2018-Jan-11 20:30N 50°18' W 000°10'5 9.0
2018-Jan-11 20:00N 50°16' W 000°17'5 9.1
2018-Jan-11 19:30N 50°15' W 000°24'5 9.5
2018-Jan-11 18:59N 50°14' W 000°31'1313.4
2018-Jan-11 18:00N 50°06' W 000°48'719.2 010 / 81022.310.8 13.1 8.8 9.0
2018-Jan-11 17:37N 50°10' W 000°58'513.4
2018-Jan-11 17:15N 50°08' W 001°05'913.7
2018-Jan-11 16:35N 50°06' W 001°19'114.0
2018-Jan-11 16:29N 50°06' W 001°21'714.0
2018-Jan-11 16:00N 50°04' W 001°31'714.3
2018-Jan-11 15:31N 50°02' W 001°42'714.1
2018-Jan-11 15:01N 50°00' W 001°52'713.8
2018-Jan-11 14:30N 49°59' W 002°03'713.2
2018-Jan-11 14:00N 49°57' W 002°13'912.5
2018-Jan-11 13:17N 49°54' W 002°26'312.2
2018-Jan-11 13:00N 49°53' W 002°31'611.9
2018-Jan-11 12:30N 49°51' W 002°40'611.5
2018-Jan-11 12:00N 49°49' W 002°48'611.2
2018-Jan-11 11:27N 49°48' W 002°58'511.0
2018-Jan-11 11:00N 49°45' W 003°04'510.9
2018-Jan-11 10:30N 49°43' W 003°11'510.8
2018-Jan-11 10:01N 49°40' W 003°18'610.7
2018-Jan-11 09:27N 49°37' W 003°26'710.7
2018-Jan-11 08:47N 49°33' W 003°36'2810.0
2018-Jan-11 06:00N 49°18' W 004°12'10 9.9 280 / 231010.610.8 10.7 6.310.0
2018-Jan-11 05:00N 49°12' W 004°24'2611.9 090 / 241008.710.8 10.5 5.310.0
2018-Jan-11 02:47N 49°01' W 005°00'311.1
2018-Jan-11 02:30N 48°59' W 005°04'611.3
2018-Jan-11 02:00N 48°56' W 005°12'611.8
2018-Jan-11 01:30N 48°53' W 005°19'612.2
2018-Jan-11 01:00N 48°50' W 005°27'60517.1
2018-Jan-09 13:37N 39°15' W 009°51'321.2
2018-Jan-09 13:29N 39°13' W 009°51'1121.9
2018-Jan-09 13:00N 39°02' W 009°51'1122.3
2018-Jan-09 12:30N 38°51' W 009°51'1122.2
2018-Jan-09 12:00N 38°40' W 009°51'1122.3
2018-Jan-09 11:31N 38°29' W 009°48'1122.4
2018-Jan-09 11:00N 38°18' W 009°44'1122.7
2018-Jan-09 10:30N 38°07' W 009°41'1122.6
2018-Jan-09 10:00N 37°56' W 009°38'1422.6
2018-Jan-09 09:23N 37°42' W 009°34'1322.0
2018-Jan-09 08:47N 37°30' W 009°31'  

Dump ship's entire track history